Time;durP1;ratioP1;P1;durP2;ratioP2;P2;SDS_P1;SDS_P2;PMS_P1;PMS_P2;Temp;Humidity;BMP_temperature;BMP_pressure;BME280_temperature;BME280_humidity;BME280_pressure;Samples;Min_cycle;Max_cycle;Signal;HPM_P1;HPM_P2
2023/05/13 00:00:11;;;;;;;7.07;5.50;;;14.60;67.10;;;;;;4924381;29;20502;-52
2023/05/13 00:02:36;;;;;;;6.90;5.00;;;14.60;67.20;;;;;;4926735;29;20039;-50
2023/05/13 00:05:02;;;;;;;6.63;5.22;;;14.60;67.30;;;;;;4926414;29;20032;-51
2023/05/13 00:07:28;;;;;;;7.22;5.20;;;14.60;67.20;;;;;;4929181;29;20043;-52
2023/05/13 00:09:53;;;;;;;5.85;4.68;;;14.60;67.20;;;;;;4931970;29;20055;-54
2023/05/13 00:12:19;;;;;;;7.30;4.97;;;14.60;66.80;;;;;;4934317;29;20054;-59
2023/05/13 00:14:45;;;;;;;5.90;4.93;;;14.60;66.80;;;;;;4927312;29;20093;-59
2023/05/13 00:17:10;;;;;;;6.90;4.95;;;14.60;66.80;;;;;;4925184;29;20080;-57
2023/05/13 00:19:36;;;;;;;5.35;4.43;;;14.60;66.60;;;;;;4923353;29;20024;-55
2023/05/13 00:22:01;;;;;;;5.82;4.60;;;14.60;66.60;;;;;;4929685;29;20029;-57
2023/05/13 00:24:27;;;;;;;9.38;5.03;;;14.60;66.40;;;;;;4934011;29;20043;-57
2023/05/13 00:26:53;;;;;;;6.75;4.97;;;14.60;66.30;;;;;;4924738;28;20055;-62
2023/05/13 00:29:18;;;;;;;7.03;4.80;;;14.60;66.30;;;;;;4923282;29;20455;-62
2023/05/13 00:31:44;;;;;;;5.03;4.40;;;14.60;66.20;;;;;;4929132;29;20051;-60
2023/05/13 00:34:10;;;;;;;7.20;4.80;;;14.60;66.30;;;;;;4922981;29;20034;-60
2023/05/13 00:36:36;;;;;;;5.55;4.70;;;14.60;66.10;;;;;;4928657;29;20052;-58
2023/05/13 00:39:02;;;;;;;5.35;4.40;;;14.60;66.00;;;;;;4928369;29;20043;-57
2023/05/13 00:41:28;;;;;;;6.07;4.75;;;14.70;65.80;;;;;;4922755;29;20031;-57
2023/05/13 00:43:55;;;;;;;6.20;4.82;;;14.70;65.60;;;;;;4927517;29;20027;-58
2023/05/13 00:46:21;;;;;;;5.60;4.57;;;14.70;65.60;;;;;;4919162;28;20043;-58
2023/05/13 00:48:48;;;;;;;6.22;5.05;;;14.70;65.60;;;;;;4925581;29;20032;-57
2023/05/13 00:51:13;;;;;;;6.10;4.88;;;14.70;65.40;;;;;;4925783;29;20034;-58
2023/05/13 00:53:39;;;;;;;5.57;4.75;;;14.70;65.50;;;;;;4930997;29;20394;-59
2023/05/13 00:56:05;;;;;;;5.68;4.82;;;14.70;65.40;;;;;;4931866;29;20143;-58
2023/05/13 00:58:30;;;;;;;6.47;5.03;;;14.70;65.50;;;;;;4920335;29;20031;-57
2023/05/13 01:01:15;;;;;;;6.65;5.38;;;14.70;65.90;;;;;;4928249;29;20036;-58
2023/05/13 01:03:59;;;;;;;5.82;5.10;;;14.70;66.10;;;;;;4928828;29;20027;-57
2023/05/13 01:06:37;;;;;;;5.45;4.88;;;14.60;66.20;;;;;;4926962;29;20111;-57
2023/05/13 01:09:13;;;;;;;6.90;4.22;;;14.70;66.30;;;;;;4927194;29;20035;-59
2023/05/13 01:11:41;;;;;;;6.10;4.70;;;14.60;66.20;;;;;;4925538;29;20028;-62
2023/05/13 01:14:21;;;;;;;6.53;4.80;;;14.60;66.30;;;;;;4917732;29;20028;-62
2023/05/13 01:17:13;;;;;;;6.63;4.65;;;14.60;66.30;;;;;;4922745;29;20128;-51
2023/05/13 01:19:47;;;;;;;5.85;4.70;;;14.60;66.40;;;;;;4927084;29;20027;-51
2023/05/13 01:22:13;;;;;;;8.68;5.20;;;14.60;66.40;;;;;;4919403;29;20034;-62
2023/05/13 01:24:38;;;;;;;6.05;4.70;;;14.50;66.10;;;;;;4925516;29;20036;-62
2023/05/13 01:27:05;;;;;;;6.38;5.20;;;14.50;65.90;;;;;;4926801;29;20047;-59
2023/05/13 01:29:31;;;;;;;5.82;4.72;;;14.50;66.10;;;;;;4926317;29;20036;-59
2023/05/13 01:31:57;;;;;;;6.18;5.00;;;14.50;66.40;;;;;;4920620;29;20624;-58
2023/05/13 01:34:25;;;;;;;4.93;4.30;;;14.50;66.60;;;;;;4925432;29;20034;-58
2023/05/13 01:36:51;;;;;;;7.80;4.88;;;14.40;66.80;;;;;;4928045;29;20059;-57
2023/05/13 01:39:19;;;;;;;6.38;5.10;;;14.40;67.00;;;;;;4933670;29;20039;-58
2023/05/13 01:41:44;;;;;;;6.22;5.18;;;14.40;67.00;;;;;;4934436;29;20032;-58
2023/05/13 01:44:10;;;;;;;6.40;4.85;;;14.40;67.20;;;;;;4939085;29;20051;-58
2023/05/13 01:46:39;;;;;;;6.13;5.32;;;14.40;67.20;;;;;;4928078;29;20063;-59
2023/05/13 01:49:06;;;;;;;6.95;5.30;;;14.30;67.20;;;;;;4936145;29;20522;-59
2023/05/13 01:51:32;;;;;;;7.38;5.22;;;14.30;67.00;;;;;;4927018;29;20460;-60
2023/05/13 01:53:57;;;;;;;7.10;4.80;;;14.30;67.40;;;;;;4932939;29;20067;-61
2023/05/13 01:56:23;;;;;;;6.55;5.40;;;14.20;67.30;;;;;;4936491;29;20083;-60
2023/05/13 01:58:49;;;;;;;6.65;5.15;;;14.20;67.50;;;;;;4935192;29;20122;-61
2023/05/13 02:01:14;;;;;;;5.05;4.55;;;14.20;67.70;;;;;;4929647;29;20385;-51
2023/05/13 02:03:41;;;;;;;9.52;5.80;;;14.20;67.60;;;;;;4925802;29;20408;-53
2023/05/13 02:06:07;;;;;;;7.10;5.40;;;14.20;67.80;;;;;;4917799;29;20029;-59
2023/05/13 02:08:32;;;;;;;7.78;5.15;;;14.20;67.80;;;;;;4921121;29;20039;-59
2023/05/13 02:10:59;;;;;;;6.93;5.30;;;14.20;67.90;;;;;;4922296;29;20399;-63
2023/05/13 02:13:25;;;;;;;6.47;5.00;;;14.20;68.00;;;;;;4938184;29;20038;-63
2023/05/13 02:15:51;;;;;;;6.60;5.72;;;14.20;68.10;;;;;;4937816;29;20039;-59
2023/05/13 02:18:17;;;;;;;6.68;5.35;;;14.20;68.60;;;;;;4932910;29;20087;-59
2023/05/13 02:20:44;;;;;;;6.13;5.53;;;14.20;68.80;;;;;;4936641;29;20447;-57
2023/05/13 02:23:10;;;;;;;7.28;5.60;;;14.20;69.10;;;;;;4932911;29;20036;-58
2023/05/13 02:25:36;;;;;;;7.65;5.35;;;14.20;69.30;;;;;;4924076;29;20028;-59
2023/05/13 02:28:02;;;;;;;7.32;5.28;;;14.20;69.40;;;;;;4929413;29;20062;-60
2023/05/13 02:30:27;;;;;;;6.88;5.65;;;14.20;69.50;;;;;;4919278;29;20107;-60
2023/05/13 02:32:54;;;;;;;6.72;5.38;;;14.20;69.90;;;;;;4929299;29;20723;-60
2023/05/13 02:35:21;;;;;;;6.28;5.20;;;14.20;69.80;;;;;;4935810;29;20443;-64
2023/05/13 02:37:47;;;;;;;6.82;5.80;;;14.20;70.10;;;;;;4936579;29;20033;-63
2023/05/13 02:40:13;;;;;;;8.77;5.68;;;14.20;70.30;;;;;;4935515;29;20570;-55
2023/05/13 02:42:39;;;;;;;6.95;6.05;;;14.20;70.30;;;;;;4934131;29;20118;-52
2023/05/13 02:45:05;;;;;;;6.20;4.97;;;14.20;70.40;;;;;;4941119;29;20043;-49
2023/05/13 02:47:31;;;;;;;6.22;5.40;;;14.20;70.30;;;;;;4933922;29;20047;-49
2023/05/13 02:49:57;;;;;;;6.15;5.55;;;14.30;70.40;;;;;;4930679;29;20059;-53
2023/05/13 02:52:23;;;;;;;7.65;5.80;;;14.20;70.40;;;;;;4935094;29;20038;-60
2023/05/13 02:54:48;;;;;;;6.47;5.40;;;14.30;70.50;;;;;;4922704;29;20040;-60
2023/05/13 02:57:15;;;;;;;7.20;5.55;;;14.30;70.70;;;;;;4934714;29;20056;-55
2023/05/13 02:59:40;;;;;;;6.22;5.35;;;14.30;70.60;;;;;;4923134;29;20024;-52
2023/05/13 03:02:06;;;;;;;7.20;5.75;;;14.30;70.60;;;;;;4924767;29;20360;-63
2023/05/13 03:04:31;;;;;;;7.30;5.93;;;14.40;70.70;;;;;;4931081;29;20029;-62
2023/05/13 03:06:57;;;;;;;7.15;5.32;;;14.40;70.70;;;;;;4932898;29;20039;-60
2023/05/13 03:09:23;;;;;;;5.93;5.13;;;14.40;70.80;;;;;;4925168;29;20059;-60
2023/05/13 03:11:49;;;;;;;6.13;5.25;;;14.50;70.80;;;;;;4922743;29;20035;-58
2023/05/13 03:14:15;;;;;;;6.60;5.07;;;14.60;71.10;;;;;;4934883;29;20038;-58
2023/05/13 03:16:40;;;;;;;9.02;6.20;;;14.60;71.30;;;;;;4935249;29;20475;-56
2023/05/13 03:19:06;;;;;;;7.93;5.43;;;14.70;71.30;;;;;;4922486;29;20032;-56
2023/05/13 03:21:31;;;;;;;7.30;5.28;;;14.80;71.30;;;;;;4922398;29;20126;-57
2023/05/13 03:23:57;;;;;;;7.60;5.18;;;15.00;71.40;;;;;;4934424;29;20078;-56
2023/05/13 03:26:23;;;;;;;6.75;5.22;;;15.10;71.40;;;;;;4933642;29;20545;-60
2023/05/13 03:28:48;;;;;;;7.25;5.05;;;15.20;71.50;;;;;;4935365;29;20481;-60
2023/05/13 03:31:14;;;;;;;5.97;5.00;;;15.40;71.60;;;;;;4929664;29;20375;-60
2023/05/13 03:33:39;;;;;;;6.35;4.90;;;15.60;71.50;;;;;;4935109;29;20123;-60
2023/05/13 03:36:05;;;;;;;6.43;4.80;;;15.80;71.40;;;;;;4933774;29;20046;-60
2023/05/13 03:38:31;;;;;;;6.60;4.90;;;16.00;71.30;;;;;;4922972;29;20480;-60
2023/05/13 03:40:57;;;;;;;6.20;4.15;;;16.20;70.90;;;;;;4932480;29;20039;-60
2023/05/13 03:43:23;;;;;;;4.85;3.80;;;16.50;70.00;;;;;;4922859;29;20032;-60
2023/05/13 03:45:50;;;;;;;4.10;3.58;;;16.70;69.40;;;;;;4929131;29;20151;-57
2023/05/13 03:48:16;;;;;;;4.28;3.58;;;16.90;68.50;;;;;;4922313;29;20463;-57
2023/05/13 03:50:41;;;;;;;5.57;3.15;;;17.00;66.80;;;;;;4925212;29;20032;-60
2023/05/13 03:53:09;;;;;;;3.00;2.70;;;17.10;65.90;;;;;;4921780;29;20028;-59
2023/05/13 03:55:34;;;;;;;4.47;3.47;;;17.20;65.00;;;;;;4925893;29;20059;-60
2023/05/13 03:58:13;;;;;;;3.20;2.90;;;17.20;64.20;;;;;;4929795;29;20143;-60
2023/05/13 04:00:39;;;;;;;4.72;3.40;;;17.40;63.60;;;;;;4927420;29;20032;-57
2023/05/13 04:03:05;;;;;;;4.28;3.30;;;17.40;62.80;;;;;;4931727;29;20043;-57
2023/05/13 04:05:31;;;;;;;6.18;3.20;;;17.40;62.20;;;;;;4926923;29;20039;-57
2023/05/13 04:07:56;;;;;;;3.80;3.22;;;17.40;61.80;;;;;;4926228;29;20067;-58
2023/05/13 04:10:22;;;;;;;4.18;3.30;;;17.40;61.70;;;;;;4925405;29;20039;-63
2023/05/13 04:12:48;;;;;;;5.07;4.38;;;17.40;62.00;;;;;;4922901;29;20036;-60
2023/05/13 04:15:13;;;;;;;4.97;4.18;;;17.40;62.20;;;;;;4926484;29;20036;-63
2023/05/13 04:17:39;;;;;;;4.72;3.42;;;17.50;62.70;;;;;;4917758;29;20043;-62
2023/05/13 04:20:06;;;;;;;4.00;3.58;;;17.70;62.00;;;;;;4931911;29;20066;-63
2023/05/13 04:22:31;;;;;;;4.13;3.40;;;18.00;62.10;;;;;;4923838;29;20044;-62
2023/05/13 04:24:57;;;;;;;4.28;3.00;;;18.30;61.90;;;;;;4923965;29;20039;-63
2023/05/13 04:27:23;;;;;;;4.55;3.10;;;18.40;61.40;;;;;;4932785;29;20471;-60
2023/05/13 04:29:49;;;;;;;3.55;2.90;;;18.70;61.90;;;;;;4921779;29;20464;-60
2023/05/13 04:32:20;;;;;;;4.15;3.30;;;19.40;61.90;;;;;;4922961;29;20028;-54
2023/05/13 04:34:49;;;;;;;2.92;2.60;;;20.20;61.60;;;;;;4933815;29;20036;-50
2023/05/13 04:37:15;;;;;;;3.50;2.65;;;20.70;59.40;;;;;;4944976;29;20040;-57
2023/05/13 04:39:44;;;;;;;3.80;3.00;;;20.90;58.20;;;;;;4934305;29;20459;-57
2023/05/13 04:42:10;;;;;;;4.10;3.25;;;20.90;57.70;;;;;;4930913;29;20444;-57
2023/05/13 04:44:36;;;;;;;3.95;3.28;;;20.90;57.10;;;;;;4917156;29;20028;-58
2023/05/13 04:47:01;;;;;;;4.88;3.80;;;20.90;56.70;;;;;;4933076;29;20043;-59
2023/05/13 04:49:27;;;;;;;3.33;3.03;;;21.10;57.80;;;;;;4921173;29;20040;-58
2023/05/13 04:51:53;;;;;;;3.78;3.20;;;21.70;57.50;;;;;;4917258;29;20091;-56
2023/05/13 04:54:19;;;;;;;3.45;3.00;;;22.20;56.50;;;;;;4919952;29;20088;-54
2023/05/13 04:56:44;;;;;;;3.72;2.80;;;22.50;55.10;;;;;;4930706;29;20052;-53
2023/05/13 04:59:10;;;;;;;3.30;2.78;;;22.60;54.40;;;;;;4915001;29;20111;-54
2023/05/13 05:01:36;;;;;;;3.75;2.83;;;22.30;53.80;;;;;;4928812;29;20047;-55
2023/05/13 05:04:01;;;;;;;4.00;2.95;;;22.00;53.80;;;;;;4933133;29;20083;-54
2023/05/13 05:06:27;;;;;;;3.75;3.05;;;21.60;54.20;;;;;;4929840;29;20036;-53
2023/05/13 05:08:53;;;;;;;4.82;3.75;;;21.40;54.60;;;;;;4925582;29;20035;-55
2023/05/13 05:11:18;;;;;;;4.97;3.58;;;21.40;55.40;;;;;;4919261;29;20032;-53
2023/05/13 05:13:44;;;;;;;4.97;3.80;;;21.50;55.60;;;;;;4923631;29;20035;-50
2023/05/13 05:16:10;;;;;;;4.32;3.75;;;21.60;55.40;;;;;;4920087;29;20036;-51
2023/05/13 05:18:35;;;;;;;6.80;4.32;;;21.80;55.40;;;;;;4931422;29;20036;-52
2023/05/13 05:21:02;;;;;;;6.15;4.00;;;22.10;55.70;;;;;;4924598;29;20031;-61
2023/05/13 05:23:27;;;;;;;5.32;4.55;;;22.20;55.30;;;;;;4934600;29;20031;-61
2023/05/13 05:25:53;;;;;;;5.15;4.30;;;22.20;55.00;;;;;;4936315;29;20051;-61
2023/05/13 05:28:18;;;;;;;5.72;4.50;;;22.20;55.00;;;;;;4924507;29;20047;-60
2023/05/13 05:30:44;;;;;;;6.15;4.65;;;21.90;55.70;;;;;;4918554;29;20058;-57
2023/05/13 05:33:10;;;;;;;4.05;3.22;;;21.80;55.10;;;;;;4933163;29;20375;-57
2023/05/13 05:35:37;;;;;;;4.63;3.53;;;21.50;54.70;;;;;;4932823;29;20442;-58
2023/05/13 05:38:07;;;;;;;6.35;3.83;;;21.30;54.60;;;;;;4918787;29;20531;-59
2023/05/13 05:40:36;;;;;;;4.97;3.50;;;21.10;54.70;;;;;;4921306;29;20088;-61
2023/05/13 05:43:02;;;;;;;5.30;4.35;;;20.90;54.70;;;;;;4927665;29;20064;-62
2023/05/13 05:45:27;;;;;;;5.40;4.57;;;20.70;54.80;;;;;;4922012;29;20059;-60
2023/05/13 05:47:54;;;;;;;6.05;4.45;;;20.50;55.20;;;;;;4935800;29;20070;-60
2023/05/13 05:50:20;;;;;;;5.15;4.30;;;20.30;55.30;;;;;;4923900;29;20054;-60
2023/05/13 05:52:45;;;;;;;4.28;3.58;;;20.10;55.30;;;;;;4934628;29;20462;-61
2023/05/13 05:55:11;;;;;;;4.75;3.85;;;20.00;55.50;;;;;;4929650;29;20043;-60
2023/05/13 05:57:36;;;;;;;5.35;4.10;;;19.90;55.50;;;;;;4929798;29;20070;-61
2023/05/13 06:00:03;;;;;;;4.88;3.75;;;19.80;55.50;;;;;;4921450;29;20608;-61
2023/05/13 06:02:28;;;;;;;4.53;3.45;;;19.70;55.80;;;;;;4929584;29;20387;-60
2023/05/13 06:04:54;;;;;;;4.13;3.55;;;19.60;55.80;;;;;;4934751;29;20032;-59
2023/05/13 06:07:20;;;;;;;3.47;3.10;;;19.60;55.80;;;;;;4936075;29;20050;-60
2023/05/13 06:09:45;;;;;;;4.10;2.97;;;19.50;55.60;;;;;;4932297;29;20379;-61
2023/05/13 06:12:11;;;;;;;4.28;3.10;;;19.50;55.50;;;;;;4930708;29;20383;-55
2023/05/13 06:14:37;;;;;;;3.92;3.20;;;19.50;55.50;;;;;;4933743;29;20475;-55
2023/05/13 06:17:02;;;;;;;4.18;3.15;;;19.60;55.30;;;;;;4933768;29;20111;-57
2023/05/13 06:19:28;;;;;;;3.80;3.20;;;19.60;55.30;;;;;;4931757;29;20197;-54
2023/05/13 06:21:53;;;;;;;3.55;2.85;;;19.70;55.40;;;;;;4922650;29;20067;-60
2023/05/13 06:24:19;;;;;;;4.03;3.00;;;19.70;55.40;;;;;;4933323;29;20171;-60
2023/05/13 06:26:45;;;;;;;4.25;2.92;;;19.70;55.00;;;;;;4925796;29;20044;-60
2023/05/13 06:29:11;;;;;;;3.65;3.28;;;19.80;54.60;;;;;;4928350;29;20036;-61
2023/05/13 06:31:36;;;;;;;3.47;3.17;;;19.80;54.60;;;;;;4929913;29;20039;-57
2023/05/13 06:34:02;;;;;;;3.42;3.13;;;19.80;54.80;;;;;;4931750;29;20036;-58
2023/05/13 06:36:27;;;;;;;3.90;3.25;;;19.80;54.90;;;;;;4926972;29;20024;-58
2023/05/13 06:38:53;;;;;;;3.33;2.92;;;19.80;55.10;;;;;;4931638;29;20399;-58
2023/05/13 06:41:19;;;;;;;3.55;3.08;;;19.70;55.40;;;;;;4935953;29;20058;-61
2023/05/13 06:43:45;;;;;;;4.32;3.50;;;19.70;55.70;;;;;;4923467;29;20381;-59
2023/05/13 06:46:11;;;;;;;3.97;3.30;;;19.70;56.10;;;;;;4929303;29;20036;-60
2023/05/13 06:48:37;;;;;;;4.20;3.10;;;19.60;56.40;;;;;;4908951;29;20686;-59
2023/05/13 06:51:04;;;;;;;3.75;3.03;;;19.60;56.40;;;;;;4923382;29;20047;-59
2023/05/13 06:53:30;;;;;;;4.47;3.03;;;19.60;55.80;;;;;;4918538;29;20023;-62
2023/05/13 06:55:56;;;;;;;3.50;2.67;;;19.60;55.40;;;;;;4925056;29;20059;-61
2023/05/13 06:58:22;;;;;;;4.20;2.88;;;19.60;54.80;;;;;;4928284;29;20566;-61
2023/05/13 07:00:47;;;;;;;3.53;2.47;;;19.60;54.50;;;;;;4925135;29;20467;-63
2023/05/13 07:03:13;;;;;;;3.53;2.45;;;19.70;54.20;;;;;;4910971;29;20054;-61
2023/05/13 07:05:39;;;;;;;2.70;2.50;;;19.70;53.90;;;;;;4925471;29;20028;-60
2023/05/13 07:08:08;;;;;;;4.63;2.53;;;19.70;53.60;;;;;;4926668;29;20090;-61
2023/05/13 07:10:34;;;;;;;3.42;2.70;;;19.80;53.30;;;;;;4919078;29;20032;-59
2023/05/13 07:13:02;;;;;;;3.35;2.53;;;19.80;53.00;;;;;;4917509;29;20087;-60
2023/05/13 07:15:28;;;;;;;3.50;2.45;;;19.80;52.80;;;;;;4919133;29;20028;-58
2023/05/13 07:17:54;;;;;;;2.85;2.55;;;19.80;52.80;;;;;;4916175;29;20138;-61
2023/05/13 07:20:21;;;;;;;2.85;2.65;;;19.80;52.80;;;;;;4918396;29;20058;-61
2023/05/13 07:22:49;;;;;;;2.50;2.20;;;19.80;52.80;;;;;;4922650;29;20055;-62
2023/05/13 07:25:16;;;;;;;3.35;2.40;;;19.80;52.60;;;;;;4912416;29;20046;-59
2023/05/13 07:27:42;;;;;;;2.70;2.45;;;19.80;52.50;;;;;;4922462;29;20046;-62
2023/05/13 07:30:08;;;;;;;2.90;2.30;;;19.80;52.30;;;;;;4924365;29;20044;-61
2023/05/13 07:32:35;;;;;;;3.88;2.65;;;19.80;52.40;;;;;;4921787;29;20023;-61
2023/05/13 07:35:01;;;;;;;2.92;2.40;;;19.90;52.60;;;;;;4923381;29;20028;-61
2023/05/13 07:37:27;;;;;;;2.65;2.33;;;19.90;52.50;;;;;;4927018;29;20039;-61
2023/05/13 07:39:53;;;;;;;3.53;2.42;;;20.00;52.50;;;;;;4926151;29;20103;-61
2023/05/13 07:42:18;;;;;;;3.75;2.28;;;20.00;52.40;;;;;;4923637;29;20035;-60
2023/05/13 07:44:44;;;;;;;3.65;2.45;;;20.20;52.60;;;;;;4917338;29;20039;-60
2023/05/13 07:47:11;;;;;;;4.25;2.35;;;20.30;52.20;;;;;;4921012;29;20051;-60
2023/05/13 07:49:37;;;;;;;3.08;2.60;;;20.30;52.00;;;;;;4920744;29;20035;-61
2023/05/13 07:52:02;;;;;;;2.50;2.30;;;20.40;51.80;;;;;;4920746;29;20038;-59
2023/05/13 07:54:28;;;;;;;2.85;2.20;;;20.40;52.40;;;;;;4921888;29;20063;-61
2023/05/13 07:56:54;;;;;;;4.18;2.50;;;20.50;51.70;;;;;;4919699;29;20087;-61
2023/05/13 07:59:19;;;;;;;5.63;2.53;;;20.50;51.70;;;;;;4924313;29;20036;-61
2023/05/13 08:01:45;;;;;;;3.15;2.85;;;20.60;51.80;;;;;;4918813;29;20039;-53
2023/05/13 08:04:11;;;;;;;3.53;2.35;;;20.70;52.10;;;;;;4921375;29;20083;-53
2023/05/13 08:06:36;;;;;;;2.72;2.05;;;20.60;51.90;;;;;;4918418;29;20028;-51
2023/05/13 08:09:02;;;;;;;2.55;2.35;;;20.70;51.70;;;;;;4924371;29;20051;-53
2023/05/13 08:11:28;;;;;;;3.05;2.50;;;20.70;51.70;;;;;;4921470;29;20118;-56
2023/05/13 08:13:54;;;;;;;3.85;2.60;;;20.70;51.50;;;;;;4922465;29;20038;-52
2023/05/13 08:16:20;;;;;;;4.03;2.50;;;20.70;51.30;;;;;;4923902;29;20040;-60
2023/05/13 08:18:46;;;;;;;3.75;2.95;;;20.70;51.20;;;;;;4921538;29;20067;-61
2023/05/13 08:21:11;;;;;;;2.97;2.63;;;20.70;51.20;;;;;;4921345;29;20086;-61
2023/05/13 08:23:37;;;;;;;3.55;2.58;;;20.70;51.40;;;;;;4921869;29;20418;-61
2023/05/13 08:26:03;;;;;;;3.55;2.75;;;20.70;51.40;;;;;;4921007;29;20027;-61
2023/05/13 08:28:29;;;;;;;4.55;2.65;;;20.70;51.60;;;;;;4916277;29;20050;-61
2023/05/13 08:31:01;;;;;;;2.97;2.58;;;20.70;51.50;;;;;;4911054;29;20036;-61
2023/05/13 08:33:28;;;;;;;2.60;2.40;;;20.70;51.60;;;;;;4910288;29;20132;-62
2023/05/13 08:35:54;;;;;;;3.83;2.55;;;20.70;51.70;;;;;;4917597;29;20471;-62
2023/05/13 08:38:19;;;;;;;3.08;2.60;;;20.70;51.80;;;;;;4922468;29;20122;-61
2023/05/13 08:40:45;;;;;;;2.95;2.55;;;20.60;52.00;;;;;;4922075;29;20043;-63
2023/05/13 08:43:15;;;;;;;3.28;2.40;;;20.70;52.20;;;;;;4922952;29;20039;-61
2023/05/13 08:45:44;;;;;;;3.85;2.58;;;20.70;52.30;;;;;;4921221;29;20059;-64
2023/05/13 08:48:11;;;;;;;3.40;2.20;;;20.70;52.50;;;;;;4918765;29;20475;-60
2023/05/13 08:50:37;;;;;;;4.82;2.67;;;20.70;52.50;;;;;;4928987;29;20446;-63
2023/05/13 08:53:05;;;;;;;5.47;2.95;;;20.70;52.10;;;;;;4926674;29;20032;-59
2023/05/13 08:55:31;;;;;;;2.85;2.20;;;20.70;52.20;;;;;;4921233;29;20475;-61
2023/05/13 08:57:57;;;;;;;3.75;2.55;;;20.70;52.20;;;;;;4922302;29;20363;-59
2023/05/13 09:00:22;;;;;;;3.58;2.35;;;20.70;52.20;;;;;;4916546;29;20083;-65
2023/05/13 09:02:49;;;;;;;4.07;2.60;;;20.70;52.50;;;;;;4923739;29;20044;-60
2023/05/13 09:05:16;;;;;;;3.15;2.30;;;20.60;52.50;;;;;;4930188;29;20044;-62
2023/05/13 09:07:41;;;;;;;3.70;2.50;;;20.60;52.50;;;;;;4928156;29;20150;-63
2023/05/13 09:10:08;;;;;;;4.32;3.05;;;20.60;52.50;;;;;;4921787;29;20655;-59
2023/05/13 09:12:53;;;;;;;3.38;3.00;;;20.50;52.40;;;;;;4925446;29;22320;-62
2023/05/13 09:15:24;;;;;;;4.57;3.13;;;20.50;52.50;;;;;;4925283;29;20035;-63
2023/05/13 09:18:00;;;;;;;5.47;3.88;;;20.50;52.60;;;;;;4923407;29;20048;-65
2023/05/13 09:20:26;;;;;;;3.33;2.90;;;20.40;52.50;;;;;;4921121;29;20035;-58
2023/05/13 09:22:53;;;;;;;4.00;2.60;;;20.40;52.50;;;;;;4921593;29;20039;-59
2023/05/13 09:25:22;;;;;;;3.92;2.30;;;20.30;52.40;;;;;;4922610;29;20043;-58
2023/05/13 09:27:51;;;;;;;3.10;2.60;;;20.30;52.60;;;;;;4919718;29;20046;-59
2023/05/13 09:30:18;;;;;;;4.47;2.55;;;20.20;52.60;;;;;;4917418;29;20482;-61
2023/05/13 09:32:44;;;;;;;3.90;2.53;;;20.20;52.60;;;;;;4914894;29;20036;-57
2023/05/13 09:35:17;;;;;;;6.15;4.05;;;20.20;52.70;;;;;;4914145;29;20522;-57
2023/05/13 09:37:47;;;;;;;2.72;2.45;;;20.10;52.70;;;;;;4911048;29;20134;-59
2023/05/13 09:40:15;;;;;;;2.83;2.40;;;20.10;52.90;;;;;;4914842;29;20040;-58
2023/05/13 09:42:43;;;;;;;2.10;1.90;;;20.10;52.90;;;;;;4917333;29;20035;-59
2023/05/13 09:45:13;;;;;;;3.15;2.17;;;20.00;52.10;;;;;;4909983;29;20116;-59
2023/05/13 09:47:40;;;;;;;2.40;2.20;;;20.00;51.40;;;;;;4908973;29;20043;-58
2023/05/13 09:50:07;;;;;;;1.95;1.85;;;20.00;51.00;;;;;;4912277;29;20118;-59
2023/05/13 09:52:34;;;;;;;1.92;1.83;;;20.00;50.80;;;;;;4914711;29;20076;-59
2023/05/13 09:55:03;;;;;;;1.60;1.50;;;19.90;50.40;;;;;;4910783;29;20031;-60
2023/05/13 09:57:30;;;;;;;4.30;2.67;;;19.90;50.20;;;;;;4898787;29;20086;-61
2023/05/13 10:00:00;;;;;;;2.20;2.00;;;19.90;50.10;;;;;;4904198;29;20068;-57
2023/05/13 10:02:27;;;;;;;2.70;2.20;;;19.90;50.10;;;;;;4910310;29;20036;-62
2023/05/13 10:04:57;;;;;;;3.35;2.17;;;19.90;50.00;;;;;;4919904;29;20118;-63
2023/05/13 10:07:24;;;;;;;2.53;2.00;;;19.90;50.00;;;;;;4915435;29;20165;-61
2023/05/13 10:09:57;;;;;;;2.20;2.10;;;19.90;49.80;;;;;;4918174;29;20039;-63
2023/05/13 10:12:27;;;;;;;2.10;1.95;;;19.80;50.00;;;;;;4918726;29;20043;-62
2023/05/13 10:14:54;;;;;;;2.20;1.95;;;19.90;49.80;;;;;;4918810;29;20059;-60
2023/05/13 10:17:24;;;;;;;2.35;2.15;;;19.90;49.70;;;;;;4916347;29;20043;-62
2023/05/13 10:19:51;;;;;;;1.73;1.63;;;19.90;49.50;;;;;;4920203;29;20028;-60
2023/05/13 10:22:31;;;;;;;2.00;1.70;;;20.00;49.50;;;;;;4914718;29;20378;-62
2023/05/13 10:24:58;;;;;;;2.17;1.70;;;20.00;49.50;;;;;;4919024;29;20054;-61
2023/05/13 10:27:29;;;;;;;1.52;1.42;;;20.00;49.30;;;;;;4913444;29;20035;-59
2023/05/13 10:29:56;;;;;;;2.15;1.95;;;20.00;49.30;;;;;;4914378;29;20050;-58
2023/05/13 10:32:29;;;;;;;2.10;1.90;;;20.00;49.40;;;;;;4907483;29;20706;-60
2023/05/13 10:35:17;;;;;;;2.20;2.00;;;20.00;49.20;;;;;;4915917;29;20035;-59
2023/05/13 10:37:59;;;;;;;2.08;1.80;;;20.10;49.20;;;;;;4909351;29;20039;-59
2023/05/13 10:40:37;;;;;;;1.92;1.83;;;20.10;49.00;;;;;;4916954;29;20035;-59
2023/05/13 10:43:17;;;;;;;2.45;1.90;;;20.20;48.80;;;;;;4913829;29;20039;-59
2023/05/13 10:45:48;;;;;;;2.10;1.98;;;20.20;48.80;;;;;;4906776;29;20038;-60
2023/05/13 10:48:15;;;;;;;2.28;2.08;;;20.30;48.40;;;;;;4906390;29;20052;-59
2023/05/13 10:50:55;;;;;;;2.33;2.00;;;20.30;47.80;;;;;;4918345;29;20036;-57
2023/05/13 10:53:27;;;;;;;2.17;1.80;;;20.30;47.60;;;;;;4919573;29;20123;-58
2023/05/13 10:55:54;;;;;;;1.58;1.48;;;20.30;47.40;;;;;;4914855;29;20060;-56
2023/05/13 10:58:23;;;;;;;2.10;1.85;;;20.40;47.60;;;;;;4914115;29;20125;-58
2023/05/13 11:00:49;;;;;;;2.80;2.20;;;20.40;47.30;;;;;;4909112;29;20036;-59
2023/05/13 11:03:18;;;;;;;2.33;1.90;;;20.50;47.30;;;;;;4911430;29;20040;-56
2023/05/13 11:06:13;;;;;;;2.35;2.15;;;20.50;47.30;;;;;;4912635;29;20024;-57
2023/05/13 11:08:40;;;;;;;2.00;1.90;;;20.60;47.20;;;;;;4911054;29;20052;-56
2023/05/13 11:11:35;;;;;;;2.28;2.08;;;20.60;47.30;;;;;;4902157;29;20032;-59
2023/05/13 11:14:18;;;;;;;2.13;1.80;;;20.60;46.90;;;;;;4897872;29;20043;-58
2023/05/13 11:16:59;;;;;;;1.88;1.77;;;20.70;47.50;;;;;;4917044;29;20084;-57
2023/05/13 11:19:31;;;;;;;2.45;1.95;;;20.70;46.70;;;;;;4916751;29;20048;-57
2023/05/13 11:22:11;;;;;;;2.42;2.00;;;20.70;46.60;;;;;;4916246;29;20031;-58
2023/05/13 11:24:37;;;;;;;1.70;1.60;;;20.70;46.70;;;;;;4906387;29;20085;-56
2023/05/13 11:27:20;;;;;;;2.65;2.20;;;20.70;46.80;;;;;;4914552;29;20048;-58
2023/05/13 11:29:49;;;;;;;1.77;1.67;;;20.70;46.40;;;;;;4919204;29;20048;-58
2023/05/13 11:32:34;;;;;;;1.98;1.80;;;20.70;46.30;;;;;;4915140;29;20719;-56
2023/05/13 11:35:00;;;;;;;2.20;2.00;;;20.70;46.20;;;;;;4917690;29;20042;-59
2023/05/13 11:37:26;;;;;;;2.20;1.90;;;20.70;46.40;;;;;;4914726;29;20048;-57
2023/05/13 11:39:52;;;;;;;2.33;1.60;;;20.70;46.60;;;;;;4911956;29;20422;-57
2023/05/13 11:42:17;;;;;;;3.15;1.80;;;20.70;46.50;;;;;;4904797;29;20098;-60
2023/05/13 11:44:45;;;;;;;1.80;1.70;;;20.80;46.90;;;;;;4913291;29;20687;-55
2023/05/13 11:47:11;;;;;;;2.08;1.85;;;20.70;46.30;;;;;;4915174;29;20071;-59
2023/05/13 11:49:44;;;;;;;2.00;1.80;;;20.70;46.60;;;;;;4903479;29;20042;-60
2023/05/13 11:52:12;;;;;;;1.83;1.73;;;20.80;46.60;;;;;;4916345;29;20027;-60
2023/05/13 11:54:50;;;;;;;1.70;1.60;;;20.80;46.30;;;;;;4918503;29;20077;-60
2023/05/13 11:57:33;;;;;;;1.85;1.70;;;20.70;46.40;;;;;;4921495;29;20068;-59
2023/05/13 12:02:39;;;;;;;2.17;1.55;;;20.70;46.10;;;;;;4894490;29;20059;-86
2023/05/13 12:05:07;;;;;;;2.70;1.67;;;20.70;45.90;;;;;;4899780;29;20023;-84
2023/05/13 12:07:34;;;;;;;1.60;1.50;;;20.80;45.80;;;;;;4903200;29;20046;-84
2023/05/13 12:10:01;;;;;;;1.90;1.75;;;20.70;45.60;;;;;;4901686;29;20032;-84
2023/05/13 12:12:28;;;;;;;1.83;1.73;;;20.70;45.70;;;;;;4903566;29;20786;-85
2023/05/13 12:15:09;;;;;;;1.60;1.50;;;20.70;45.60;;;;;;4921864;29;20032;-86
2023/05/13 12:17:36;;;;;;;2.72;1.45;;;20.70;45.60;;;;;;4924015;29;20294;-85
2023/05/13 13:13:40;;;;;;;2.10;1.90;;;20.40;46.20;;;;;;6114279;22;1344140;-87
2023/05/13 13:16:06;;;;;;;1.85;1.70;;;20.40;46.20;;;;;;6119311;23;20009;-88
2023/05/13 13:18:32;;;;;;;2.17;1.40;;;20.30;46.20;;;;;;6118232;23;20010;-86
2023/05/13 13:23:33;;;;;;;1.88;1.77;;;20.30;45.80;;;;;;6184412;22;19921;-86
2023/05/13 13:26:00;;;;;;;1.80;1.70;;;20.30;45.70;;;;;;6192864;23;20076;-86
2023/05/13 13:28:27;;;;;;;1.80;1.70;;;20.30;45.90;;;;;;6167837;23;20467;-87
2023/05/13 13:30:57;;;;;;;2.67;1.80;;;20.30;46.10;;;;;;6166426;23;20015;-86
2023/05/13 13:33:23;;;;;;;3.95;2.78;;;20.30;46.30;;;;;;6167027;22;20005;-86
2023/05/13 13:35:49;;;;;;;5.20;3.78;;;20.20;46.60;;;;;;6154800;22;20011;-86
2023/05/13 13:38:15;;;;;;;3.45;2.42;;;20.20;46.60;;;;;;6161403;23;20332;-85
2023/05/13 13:40:41;;;;;;;3.67;2.10;;;20.20;46.50;;;;;;6148666;22;20004;-86
2023/05/13 13:43:07;;;;;;;1.92;1.83;;;20.20;46.80;;;;;;6151541;23;20005;-86
2023/05/13 13:45:33;;;;;;;2.17;2.00;;;20.20;46.50;;;;;;6154789;23;20002;-85
2023/05/13 13:47:59;;;;;;;2.10;2.00;;;20.20;46.30;;;;;;6150146;22;20055;-85